Marinicki — 9HWU9 — position and weather

sailwx.info

Track history (hours):
 
Tides and Currents Weather Stations Pressure Air Temp Water Temp Dewpoint Dewpoint Depression Visibility Wind Speed Wind Dir Waves Ship Positions

Marinicki

Last reported at 2017-Feb-23 21:06 UTC. Time now 2017-Feb-25 09:10 UTC.
Position N 00°10' W 050°49'.

Length 225 m; draft 11.6 m.

Type: Cargo ship. MMSI: 249650000.

Date/timePositionNaut miles runAvg speedWind from/ knotsBaromVisibWave heightAir tempDewpointWater temp
2017-Feb-23 21:06N 00°10' W 050°49'712.5
2017-Feb-23 20:33N 00°09' W 050°55'1212.3
2017-Feb-23 19:33S 00°01' W 051°03'5 4.5
2017-Feb-23 18:32S 00°04' W 051°06'0 0.1
2017-Feb-23 17:26S 00°04' W 051°06'2 1.9
2017-Feb-23 16:33S 00°03' W 051°05'5 4.6
2017-Feb-23 15:33S 00°01' W 051°01'8 7.7
2017-Feb-23 14:33S 00°09' W 051°02'31011.9
2017-Feb-22 12:27S 01°35' W 055°60'1010.8
2017-Feb-22 11:33S 01°31' W 056°09'8 7.9
2017-Feb-22 10:33S 01°32' W 056°17'8 8.0
2017-Feb-22 09:33S 01°27' W 056°24'0 0.3
2017-Feb-22 08:21S 01°27' W 056°24'0 0.0
2017-Feb-22 07:33S 01°27' W 056°24'0 0.0
2017-Feb-22 06:30S 01°27' W 056°24'0 0.0
2017-Feb-22 05:24S 01°27' W 056°24'0 0.0
2017-Feb-22 04:33S 01°27' W 056°24'0 0.0
2017-Feb-22 03:24S 01°27' W 056°24'0 0.0
2017-Feb-22 02:32S 01°27' W 056°24'0 0.0
2017-Feb-22 01:32S 01°27' W 056°24'0 0.0
2017-Feb-22 00:32S 01°27' W 056°24'0 0.0
2017-Feb-21 23:33S 01°27' W 056°24'0 0.0
2017-Feb-21 22:18S 01°27' W 056°24'0 0.1
2017-Feb-21 21:33S 01°27' W 056°24'1 0.5
2017-Feb-21 19:13S 01°28' W 056°23'0 0.0
2017-Feb-21 18:31S 01°28' W 056°23'0 0.0
2017-Feb-21 15:07S 01°28' W 056°23'0 0.0
2017-Feb-21 14:33S 01°28' W 056°23'0 0.0
2017-Feb-21 13:33S 01°28' W 056°23'0 0.0
2017-Feb-21 12:33S 01°28' W 056°23'0 0.0
2017-Feb-21 11:33S 01°28' W 056°23'0 0.0
2017-Feb-21 10:33S 01°28' W 056°23'0 0.0
2017-Feb-21 09:33S 01°28' W 056°23'0 0.0
2017-Feb-21 08:33S 01°28' W 056°23'0 0.0
2017-Feb-21 07:33S 01°28' W 056°23'0 0.0
2017-Feb-21 06:33S 01°28' W 056°23'0 0.0
2017-Feb-21 05:33S 01°28' W 056°23'0 0.0
2017-Feb-21 04:33S 01°28' W 056°23'0 0.0
2017-Feb-21 03:33S 01°28' W 056°23'0 0.0
2017-Feb-21 02:33S 01°28' W 056°23'0 0.0
2017-Feb-21 01:33S 01°28' W 056°23'0 0.0
2017-Feb-21 00:28S 01°28' W 056°23'0 0.0
2017-Feb-20 23:31S 01°28' W 056°23'0 0.0
2017-Feb-20 22:33S 01°28' W 056°23'0 0.0
2017-Feb-20 21:33S 01°28' W 056°23'0 0.0
2017-Feb-20 20:33S 01°28' W 056°23'0 0.0
2017-Feb-20 19:33S 01°28' W 056°23'0 0.0
2017-Feb-20 18:33S 01°28' W 056°23'0 0.0
2017-Feb-20 17:33S 01°28' W 056°23'0 0.0
2017-Feb-20 16:33S 01°28' W 056°23'0 0.0
2017-Feb-20 15:33S 01°28' W 056°23'0 0.0
2017-Feb-20 14:33S 01°28' W 056°23'0 0.0
2017-Feb-20 13:33S 01°28' W 056°23'0 0.0
2017-Feb-20 12:33S 01°28' W 056°23'0 0.0
2017-Feb-20 11:33S 01°28' W 056°23'0 0.0
2017-Feb-20 10:33S 01°28' W 056°23'0 0.0
2017-Feb-20 09:33S 01°28' W 056°23'1 0.1
2017-Feb-20 03:07S 01°28' W 056°22'0 0.0
2017-Feb-20 02:31S 01°28' W 056°22'0 0.0
2017-Feb-20 01:31S 01°28' W 056°22'0 0.0
2017-Feb-20 00:28S 01°28' W 056°22'0 0.0
2017-Feb-19 23:31S 01°28' W 056°22'0 0.0
2017-Feb-19 22:31S 01°28' W 056°22'0 0.0
2017-Feb-19 21:31S 01°28' W 056°22'0 0.0
2017-Feb-19 20:31S 01°28' W 056°22'0 0.0
2017-Feb-19 19:31S 01°28' W 056°22'0 0.0
2017-Feb-19 18:31S 01°28' W 056°22'0 0.0
2017-Feb-19 17:31S 01°28' W 056°22'0 0.0
2017-Feb-19 16:31S 01°28' W 056°22'0 0.0
2017-Feb-19 15:31S 01°28' W 056°22'0 0.0
2017-Feb-19 14:33S 01°28' W 056°22'0 0.0
2017-Feb-19 13:33S 01°28' W 056°22'1 0.9
2017-Feb-19 12:33S 01°28' W 056°21'7 6.7
2017-Feb-19 11:33S 01°31' W 056°16'1211.4
2017-Feb-19 10:30S 01°31' W 056°04'1010.8
2017-Feb-19 09:33S 01°39' W 055°58'293 8.1
2017-Feb-17 21:33S 00°13' W 051°18'1010.4
2017-Feb-17 20:33S 00°07' W 051°10'8 7.8
2017-Feb-17 19:33S 00°02' W 051°03'5 4.7
2017-Feb-17 18:33N 00°01' W 050°60'0 0.0
2017-Feb-17 16:30N 00°01' W 050°60'0 0.0
2017-Feb-17 15:30N 00°01' W 050°60'0 0.0
2017-Feb-17 14:30N 00°01' W 050°60'0 0.0
2017-Feb-17 12:12N 00°01' W 050°60'0 0.3
2017-Feb-17 11:30N 00°01' W 050°60'0 0.0
2017-Feb-17 09:30N 00°01' W 050°60'0 0.1
2017-Feb-17 07:30N 00°01' W 050°60'0 0.0
2017-Feb-17 04:30N 00°01' W 050°60'0 0.0
2017-Feb-17 03:30N 00°01' W 050°60'0 0.0
2017-Feb-17 01:30N 00°01' W 050°60'0 0.1
2017-Feb-16 23:30N 00°01' W 050°60'0 0.0
2017-Feb-16 21:30N 00°01' W 050°60'0 0.1
2017-Feb-16 18:12N 00°01' W 050°60'0 0.0
2017-Feb-16 17:30N 00°01' W 050°60'0 0.0
2017-Feb-16 16:24N 00°01' W 050°60'0 0.0
2017-Feb-16 15:30N 00°01' W 050°60'0 0.0
2017-Feb-16 14:30N 00°01' W 050°60'0 0.0
2017-Feb-16 13:30N 00°01' W 050°60'0 0.0
2017-Feb-16 12:30N 00°01' W 050°60'0 0.1
2017-Feb-16 11:30N 00°01' W 050°60'0 0.2
2017-Feb-16 10:30N 00°01' W 050°60'0 0.0
2017-Feb-16 09:30N 00°01' W 050°60'0 0.0
2017-Feb-16 08:30N 00°01' W 050°60'0 0.3
2017-Feb-16 07:30N 00°01' W 050°60'0 0.0
2017-Feb-16 03:24N 00°01' W 050°60'0 0.0
2017-Feb-16 02:30N 00°01' W 050°60'0 0.1
2017-Feb-16 01:30N 00°01' W 050°60'0 0.1
2017-Feb-16 00:30N 00°01' W 050°60'0 0.1
2017-Feb-15 23:30N 00°01' W 050°60'0 0.2
2017-Feb-15 22:30N 00°01' W 051°00'0 0.1
2017-Feb-15 21:30N 00°01' W 051°00'0 0.0
2017-Feb-15 20:30N 00°01' W 051°00'0 0.2
2017-Feb-15 19:32N 00°01' W 050°60'0 0.0
2017-Feb-15 18:30N 00°01' W 050°60'0 0.0
2017-Feb-15 17:30N 00°01' W 050°60'0 0.0
2017-Feb-15 16:30N 00°01' W 050°60'0 0.0
2017-Feb-15 15:30N 00°01' W 050°60'0 0.0
2017-Feb-15 14:30N 00°01' W 050°60'0 0.0
2017-Feb-15 13:30N 00°01' W 050°60'0 0.0
2017-Feb-15 12:30N 00°01' W 050°60'0 0.0
2017-Feb-15 11:30N 00°01' W 050°60'0 0.2
2017-Feb-15 10:30N 00°01' W 050°60'0 0.1
2017-Feb-15 09:24N 00°01' W 050°60'0 0.0
2017-Feb-15 08:30N 00°01' W 050°60'0 0.0
2017-Feb-15 07:31N 00°01' W 050°60'0 0.2
2017-Feb-15 06:30N 00°01' W 050°60'0 0.0
2017-Feb-15 05:33N 00°01' W 050°60'0 0.0
2017-Feb-15 04:33N 00°01' W 050°60'0 0.0
2017-Feb-15 03:33N 00°01' W 050°60'0 0.0
2017-Feb-15 02:33N 00°01' W 050°60'0 0.0
2017-Feb-15 01:33N 00°01' W 050°60'0 0.0
2017-Feb-15 00:33N 00°01' W 050°60'0 0.0
2017-Feb-14 23:33N 00°01' W 050°60'0 0.2
2017-Feb-14 22:33N 00°01' W 051°00'0 0.0
2017-Feb-14 21:33N 00°01' W 051°00'0 0.0
2017-Feb-14 20:33N 00°01' W 051°00'0 0.0
2017-Feb-14 19:33N 00°01' W 051°00'0 0.2
2017-Feb-14 18:33N 00°01' W 050°60'0 0.1
2017-Feb-14 17:33N 00°01' W 050°60'0 0.0
2017-Feb-14 16:33N 00°01' W 050°60'0 0.0
2017-Feb-14 15:33N 00°01' W 050°60'0 0.0
2017-Feb-14 14:33N 00°01' W 050°60'0 0.0
2017-Feb-14 13:33N 00°01' W 050°60'0 0.0
2017-Feb-14 12:33N 00°01' W 050°60'0 0.0
2017-Feb-14 11:33N 00°01' W 050°60'0 0.2
2017-Feb-14 10:33N 00°01' W 050°60'0 0.1
2017-Feb-14 09:33N 00°01' W 051°00'0 0.0
2017-Feb-14 08:33N 00°01' W 051°00'0 0.0
2017-Feb-14 07:33N 00°01' W 050°60'0 0.0
2017-Feb-14 06:33N 00°01' W 051°00'0 0.2
2017-Feb-14 05:33N 00°01' W 050°60'0 0.1
2017-Feb-14 04:33N 00°01' W 050°60'0 0.0
2017-Feb-14 03:33N 00°01' W 050°60'0 0.0
2017-Feb-14 02:33N 00°01' W 050°60'0 0.0
2017-Feb-14 01:33N 00°01' W 050°60'0 0.0
2017-Feb-14 00:33N 00°01' W 050°60'0 0.0
2017-Feb-13 23:33N 00°01' W 050°60'0 0.2
2017-Feb-13 22:33N 00°01' W 051°00'0 0.1
2017-Feb-13 21:33N 00°01' W 051°00'  
Track history (hours):
 
Tides and Currents Weather Stations Pressure Air Temp Water Temp Dewpoint Dewpoint Depression Visibility Wind Speed Wind Dir Waves Ship Positions

Marinicki

Last reported at 2017-Feb-23 21:06 UTC. Time now 2017-Feb-25 09:10 UTC.
Position N 00°10' W 050°49'.

Length 225 m; draft 11.6 m.

Type: Cargo ship. MMSI: 249650000.

Date/timePositionNaut miles runAvg speedWind from/ knotsBaromVisibWave heightAir tempDewpointWater temp
2017-Feb-23 21:06N 00°10' W 050°49'712.5
2017-Feb-23 20:33N 00°09' W 050°55'1212.3
2017-Feb-23 19:33S 00°01' W 051°03'5 4.5
2017-Feb-23 18:32S 00°04' W 051°06'0 0.1
2017-Feb-23 17:26S 00°04' W 051°06'2 1.9
2017-Feb-23 16:33S 00°03' W 051°05'5 4.6
2017-Feb-23 15:33S 00°01' W 051°01'8 7.7
2017-Feb-23 14:33S 00°09' W 051°02'31011.9
2017-Feb-22 12:27S 01°35' W 055°60'1010.8
2017-Feb-22 11:33S 01°31' W 056°09'8 7.9
2017-Feb-22 10:33S 01°32' W 056°17'8 8.0
2017-Feb-22 09:33S 01°27' W 056°24'0 0.3
2017-Feb-22 08:21S 01°27' W 056°24'0 0.0
2017-Feb-22 07:33S 01°27' W 056°24'0 0.0
2017-Feb-22 06:30S 01°27' W 056°24'0 0.0
2017-Feb-22 05:24S 01°27' W 056°24'0 0.0
2017-Feb-22 04:33S 01°27' W 056°24'0 0.0
2017-Feb-22 03:24S 01°27' W 056°24'0 0.0
2017-Feb-22 02:32S 01°27' W 056°24'0 0.0
2017-Feb-22 01:32S 01°27' W 056°24'0 0.0
2017-Feb-22 00:32S 01°27' W 056°24'0 0.0
2017-Feb-21 23:33S 01°27' W 056°24'0 0.0
2017-Feb-21 22:18S 01°27' W 056°24'0 0.1
2017-Feb-21 21:33S 01°27' W 056°24'1 0.5
2017-Feb-21 19:13S 01°28' W 056°23'0 0.0
2017-Feb-21 18:31S 01°28' W 056°23'0 0.0
2017-Feb-21 15:07S 01°28' W 056°23'0 0.0
2017-Feb-21 14:33S 01°28' W 056°23'0 0.0
2017-Feb-21 13:33S 01°28' W 056°23'0 0.0
2017-Feb-21 12:33S 01°28' W 056°23'0 0.0
2017-Feb-21 11:33S 01°28' W 056°23'0 0.0
2017-Feb-21 10:33S 01°28' W 056°23'0 0.0
2017-Feb-21 09:33S 01°28' W 056°23'0 0.0
2017-Feb-21 08:33S 01°28' W 056°23'0 0.0
2017-Feb-21 07:33S 01°28' W 056°23'0 0.0
2017-Feb-21 06:33S 01°28' W 056°23'0 0.0
2017-Feb-21 05:33S 01°28' W 056°23'0 0.0
2017-Feb-21 04:33S 01°28' W 056°23'0 0.0
2017-Feb-21 03:33S 01°28' W 056°23'0 0.0
2017-Feb-21 02:33S 01°28' W 056°23'0 0.0
2017-Feb-21 01:33S 01°28' W 056°23'0 0.0
2017-Feb-21 00:28S 01°28' W 056°23'0 0.0
2017-Feb-20 23:31S 01°28' W 056°23'0 0.0
2017-Feb-20 22:33S 01°28' W 056°23'0 0.0
2017-Feb-20 21:33S 01°28' W 056°23'0 0.0
2017-Feb-20 20:33S 01°28' W 056°23'0 0.0
2017-Feb-20 19:33S 01°28' W 056°23'0 0.0
2017-Feb-20 18:33S 01°28' W 056°23'0 0.0
2017-Feb-20 17:33S 01°28' W 056°23'0 0.0
2017-Feb-20 16:33S 01°28' W 056°23'0 0.0
2017-Feb-20 15:33S 01°28' W 056°23'0 0.0
2017-Feb-20 14:33S 01°28' W 056°23'0 0.0
2017-Feb-20 13:33S 01°28' W 056°23'0 0.0
2017-Feb-20 12:33S 01°28' W 056°23'0 0.0
2017-Feb-20 11:33S 01°28' W 056°23'0 0.0
2017-Feb-20 10:33S 01°28' W 056°23'0 0.0
2017-Feb-20 09:33S 01°28' W 056°23'1 0.1
2017-Feb-20 03:07S 01°28' W 056°22'0 0.0
2017-Feb-20 02:31S 01°28' W 056°22'0 0.0
2017-Feb-20 01:31S 01°28' W 056°22'0 0.0
2017-Feb-20 00:28S 01°28' W 056°22'0 0.0
2017-Feb-19 23:31S 01°28' W 056°22'0 0.0
2017-Feb-19 22:31S 01°28' W 056°22'0 0.0
2017-Feb-19 21:31S 01°28' W 056°22'0 0.0
2017-Feb-19 20:31S 01°28' W 056°22'0 0.0
2017-Feb-19 19:31S 01°28' W 056°22'0 0.0
2017-Feb-19 18:31S 01°28' W 056°22'0 0.0
2017-Feb-19 17:31S 01°28' W 056°22'0 0.0
2017-Feb-19 16:31S 01°28' W 056°22'0 0.0
2017-Feb-19 15:31S 01°28' W 056°22'0 0.0
2017-Feb-19 14:33S 01°28' W 056°22'0 0.0
2017-Feb-19 13:33S 01°28' W 056°22'1 0.9
2017-Feb-19 12:33S 01°28' W 056°21'7 6.7
2017-Feb-19 11:33S 01°31' W 056°16'1211.4
2017-Feb-19 10:30S 01°31' W 056°04'1010.8
2017-Feb-19 09:33S 01°39' W 055°58'293 8.1
2017-Feb-17 21:33S 00°13' W 051°18'1010.4
2017-Feb-17 20:33S 00°07' W 051°10'8 7.8
2017-Feb-17 19:33S 00°02' W 051°03'5 4.7
2017-Feb-17 18:33N 00°01' W 050°60'0 0.0
2017-Feb-17 16:30N 00°01' W 050°60'0 0.0
2017-Feb-17 15:30N 00°01' W 050°60'0 0.0
2017-Feb-17 14:30N 00°01' W 050°60'0 0.0
2017-Feb-17 12:12N 00°01' W 050°60'0 0.3
2017-Feb-17 11:30N 00°01' W 050°60'0 0.0
2017-Feb-17 09:30N 00°01' W 050°60'0 0.1
2017-Feb-17 07:30N 00°01' W 050°60'0 0.0
2017-Feb-17 04:30N 00°01' W 050°60'0 0.0
2017-Feb-17 03:30N 00°01' W 050°60'0 0.0
2017-Feb-17 01:30N 00°01' W 050°60'0 0.1
2017-Feb-16 23:30N 00°01' W 050°60'0 0.0
2017-Feb-16 21:30N 00°01' W 050°60'0 0.1
2017-Feb-16 18:12N 00°01' W 050°60'0 0.0
2017-Feb-16 17:30N 00°01' W 050°60'0 0.0
2017-Feb-16 16:24N 00°01' W 050°60'0 0.0
2017-Feb-16 15:30N 00°01' W 050°60'0 0.0
2017-Feb-16 14:30N 00°01' W 050°60'0 0.0
2017-Feb-16 13:30N 00°01' W 050°60'0 0.0
2017-Feb-16 12:30N 00°01' W 050°60'0 0.1
2017-Feb-16 11:30N 00°01' W 050°60'0 0.2
2017-Feb-16 10:30N 00°01' W 050°60'0 0.0
2017-Feb-16 09:30N 00°01' W 050°60'0 0.0
2017-Feb-16 08:30N 00°01' W 050°60'0 0.3
2017-Feb-16 07:30N 00°01' W 050°60'0 0.0
2017-Feb-16 03:24N 00°01' W 050°60'0 0.0
2017-Feb-16 02:30N 00°01' W 050°60'0 0.1
2017-Feb-16 01:30N 00°01' W 050°60'0 0.1
2017-Feb-16 00:30N 00°01' W 050°60'0 0.1
2017-Feb-15 23:30N 00°01' W 050°60'0 0.2
2017-Feb-15 22:30N 00°01' W 051°00'0 0.1
2017-Feb-15 21:30N 00°01' W 051°00'0 0.0
2017-Feb-15 20:30N 00°01' W 051°00'0 0.2
2017-Feb-15 19:32N 00°01' W 050°60'0 0.0
2017-Feb-15 18:30N 00°01' W 050°60'0 0.0
2017-Feb-15 17:30N 00°01' W 050°60'0 0.0
2017-Feb-15 16:30N 00°01' W 050°60'0 0.0
2017-Feb-15 15:30N 00°01' W 050°60'0 0.0
2017-Feb-15 14:30N 00°01' W 050°60'0 0.0
2017-Feb-15 13:30N 00°01' W 050°60'0 0.0
2017-Feb-15 12:30N 00°01' W 050°60'0 0.0
2017-Feb-15 11:30N 00°01' W 050°60'0 0.2
2017-Feb-15 10:30N 00°01' W 050°60'0 0.1
2017-Feb-15 09:24N 00°01' W 050°60'0 0.0
2017-Feb-15 08:30N 00°01' W 050°60'0 0.0
2017-Feb-15 07:31N 00°01' W 050°60'0 0.2
2017-Feb-15 06:30N 00°01' W 050°60'0 0.0
2017-Feb-15 05:33N 00°01' W 050°60'0 0.0
2017-Feb-15 04:33N 00°01' W 050°60'0 0.0
2017-Feb-15 03:33N 00°01' W 050°60'0 0.0
2017-Feb-15 02:33N 00°01' W 050°60'0 0.0
2017-Feb-15 01:33N 00°01' W 050°60'0 0.0
2017-Feb-15 00:33N 00°01' W 050°60'0 0.0
2017-Feb-14 23:33N 00°01' W 050°60'0 0.2
2017-Feb-14 22:33N 00°01' W 051°00'0 0.0
2017-Feb-14 21:33N 00°01' W 051°00'0 0.0
2017-Feb-14 20:33N 00°01' W 051°00'0 0.0
2017-Feb-14 19:33N 00°01' W 051°00'0 0.2
2017-Feb-14 18:33N 00°01' W 050°60'0 0.1
2017-Feb-14 17:33N 00°01' W 050°60'0 0.0
2017-Feb-14 16:33N 00°01' W 050°60'0 0.0
2017-Feb-14 15:33N 00°01' W 050°60'0 0.0
2017-Feb-14 14:33N 00°01' W 050°60'0 0.0
2017-Feb-14 13:33N 00°01' W 050°60'0 0.0
2017-Feb-14 12:33N 00°01' W 050°60'0 0.0
2017-Feb-14 11:33N 00°01' W 050°60'0 0.2
2017-Feb-14 10:33N 00°01' W 050°60'0 0.1
2017-Feb-14 09:33N 00°01' W 051°00'0 0.0
2017-Feb-14 08:33N 00°01' W 051°00'0 0.0
2017-Feb-14 07:33N 00°01' W 050°60'0 0.0
2017-Feb-14 06:33N 00°01' W 051°00'0 0.2
2017-Feb-14 05:33N 00°01' W 050°60'0 0.1
2017-Feb-14 04:33N 00°01' W 050°60'0 0.0
2017-Feb-14 03:33N 00°01' W 050°60'0 0.0
2017-Feb-14 02:33N 00°01' W 050°60'0 0.0
2017-Feb-14 01:33N 00°01' W 050°60'0 0.0
2017-Feb-14 00:33N 00°01' W 050°60'0 0.0
2017-Feb-13 23:33N 00°01' W 050°60'0 0.2
2017-Feb-13 22:33N 00°01' W 051°00'0 0.1
2017-Feb-13 21:33N 00°01' W 051°00'  

Dump ship's entire track history